sensor_id;sensor_type;location;lat;lon;timestamp;pressure;altitude;pressure_sealevel;temperature;humidity
4346;BME280;2186;49.866;7.986;2022-11-20T00:01:22;99865.53;;;3.91;100.00
4346;BME280;2186;49.866;7.986;2022-11-20T00:03:50;99873.38;;;3.98;100.00
4346;BME280;2186;49.866;7.986;2022-11-20T00:06:18;99862.06;;;3.89;100.00
4346;BME280;2186;49.866;7.986;2022-11-20T00:08:45;99863.84;;;3.86;100.00
4346;BME280;2186;49.866;7.986;2022-11-20T00:11:14;99872.53;;;3.93;100.00
4346;BME280;2186;49.866;7.986;2022-11-20T00:13:46;99867.25;;;3.96;100.00
4346;BME280;2186;49.866;7.986;2022-11-20T00:16:15;99873.38;;;4.00;100.00
4346;BME280;2186;49.866;7.986;2022-11-20T00:18:42;99871.63;;;3.99;100.00
4346;BME280;2186;49.866;7.986;2022-11-20T00:21:14;99872.50;;;3.99;100.00
4346;BME280;2186;49.866;7.986;2022-11-20T00:23:41;99861.97;;;3.99;100.00
4346;BME280;2186;49.866;7.986;2022-11-20T00:26:10;99859.41;;;3.90;100.00
4346;BME280;2186;49.866;7.986;2022-11-20T00:28:38;99844.66;;;3.74;100.00
4346;BME280;2186;49.866;7.986;2022-11-20T00:31:10;99851.81;;;3.58;100.00
4346;BME280;2186;49.866;7.986;2022-11-20T00:33:36;99852.56;;;3.72;100.00
4346;BME280;2186;49.866;7.986;2022-11-20T00:36:08;99848.88;;;3.93;100.00
4346;BME280;2186;49.866;7.986;2022-11-20T00:38:35;99850.59;;;3.96;100.00
4346;BME280;2186;49.866;7.986;2022-11-20T00:41:05;99851.38;;;4.05;100.00
4346;BME280;2186;49.866;7.986;2022-11-20T00:43:32;99847.88;;;4.06;100.00
4346;BME280;2186;49.866;7.986;2022-11-20T00:46:06;99849.72;;;3.98;100.00
4346;BME280;2186;49.866;7.986;2022-11-20T00:48:33;99858.44;;;4.03;100.00
4346;BME280;2186;49.866;7.986;2022-11-20T00:50:59;99852.06;;;4.27;100.00
4346;BME280;2186;49.866;7.986;2022-11-20T00:53:26;99859.09;;;4.24;100.00
4346;BME280;2186;49.866;7.986;2022-11-20T00:55:54;99857.06;;;4.50;100.00
4346;BME280;2186;49.866;7.986;2022-11-20T00:58:21;99850.34;;;4.98;100.00
4346;BME280;2186;49.866;7.986;2022-11-20T01:00:48;99849.00;;;4.64;100.00
4346;BME280;2186;49.866;7.986;2022-11-20T01:03:18;99842.31;;;4.35;100.00
4346;BME280;2186;49.866;7.986;2022-11-20T01:05:51;99826.06;;;3.95;100.00
4346;BME280;2186;49.866;7.986;2022-11-20T01:08:18;99843.09;;;4.45;100.00
4346;BME280;2186;49.866;7.986;2022-11-20T01:10:44;99845.28;;;4.83;100.00
4346;BME280;2186;49.866;7.986;2022-11-20T01:13:11;99832.69;;;4.34;100.00
4346;BME280;2186;49.866;7.986;2022-11-20T01:16:02;99838.31;;;3.96;100.00
4346;BME280;2186;49.866;7.986;2022-11-20T01:18:29;99840.16;;;3.90;100.00
4346;BME280;2186;49.866;7.986;2022-11-20T01:21:00;99846.97;;;4.12;100.00
4346;BME280;2186;49.866;7.986;2022-11-20T01:23:30;99846.94;;;4.15;100.00
4346;BME280;2186;49.866;7.986;2022-11-20T01:25:56;99844.44;;;4.00;100.00
4346;BME280;2186;49.866;7.986;2022-11-20T01:28:23;99842.69;;;4.00;100.00
4346;BME280;2186;49.866;7.986;2022-11-20T01:30:49;99845.19;;;4.12;100.00
4346;BME280;2186;49.866;7.986;2022-11-20T01:33:15;99846.06;;;4.10;100.00
4346;BME280;2186;49.866;7.986;2022-11-20T01:35:43;99847.88;;;4.05;100.00
4346;BME280;2186;49.866;7.986;2022-11-20T01:38:09;99845.25;;;4.05;100.00
4346;BME280;2186;49.866;7.986;2022-11-20T01:40:36;99837.38;;;4.05;100.00
4346;BME280;2186;49.866;7.986;2022-11-20T01:43:19;99840.81;;;4.11;100.00
4346;BME280;2186;49.866;7.986;2022-11-20T01:48:34;99840.78;;;4.14;100.00
4346;BME280;2186;49.866;7.986;2022-11-20T01:51:04;99829.44;;;4.08;100.00
4346;BME280;2186;49.866;7.986;2022-11-20T01:53:34;99828.56;;;4.12;100.00
4346;BME280;2186;49.866;7.986;2022-11-20T01:56:05;99821.53;;;4.11;100.00
4346;BME280;2186;49.866;7.986;2022-11-20T01:58:37;99828.34;;;4.30;100.00
4346;BME280;2186;49.866;7.986;2022-11-20T02:01:05;99826.63;;;4.25;100.00
4346;BME280;2186;49.866;7.986;2022-11-20T02:03:32;99820.56;;;4.20;100.00
4346;BME280;2186;49.866;7.986;2022-11-20T02:06:11;99826.69;;;4.20;100.00
4346;BME280;2186;49.866;7.986;2022-11-20T02:08:40;99816.22;;;4.15;100.00
4346;BME280;2186;49.866;7.986;2022-11-20T02:11:07;99825.00;;;4.14;100.00
4346;BME280;2186;49.866;7.986;2022-11-20T02:13:33;99824.91;;;4.22;100.00
4346;BME280;2186;49.866;7.986;2022-11-20T02:16:16;99824.91;;;4.24;100.00
4346;BME280;2186;49.866;7.986;2022-11-20T02:18:45;99820.59;;;4.16;100.00
4346;BME280;2186;49.866;7.986;2022-11-20T02:21:24;99813.66;;;4.08;100.00
4346;BME280;2186;49.866;7.986;2022-11-20T02:24:06;99814.50;;;4.13;100.00
4346;BME280;2186;49.866;7.986;2022-11-20T02:26:39;99804.00;;;4.08;100.00
4346;BME280;2186;49.866;7.986;2022-11-20T02:29:07;99808.28;;;4.20;100.00
4346;BME280;2186;49.866;7.986;2022-11-20T02:31:38;99811.00;;;4.12;100.00
4346;BME280;2186;49.866;7.986;2022-11-20T02:34:06;99808.13;;;4.35;100.00
4346;BME280;2186;49.866;7.986;2022-11-20T02:36:34;99809.69;;;4.50;100.00
4346;BME280;2186;49.866;7.986;2022-11-20T02:39:03;99810.75;;;4.34;100.00
4346;BME280;2186;49.866;7.986;2022-11-20T02:41:33;99811.66;;;4.33;100.00
4346;BME280;2186;49.866;7.986;2022-11-20T02:43:59;99806.50;;;4.25;100.00
4346;BME280;2186;49.866;7.986;2022-11-20T02:46:26;99803.72;;;4.39;100.00
4346;BME280;2186;49.866;7.986;2022-11-20T02:48:53;99808.03;;;4.44;100.00
4346;BME280;2186;49.866;7.986;2022-11-20T02:51:19;99807.16;;;4.42;100.00
4346;BME280;2186;49.866;7.986;2022-11-20T02:53:45;99814.88;;;4.58;100.00
4346;BME280;2186;49.866;7.986;2022-11-20T02:56:12;99812.16;;;4.67;100.00
4346;BME280;2186;49.866;7.986;2022-11-20T02:58:40;99801.09;;;4.34;100.00
4346;BME280;2186;49.866;7.986;2022-11-20T03:01:06;99801.94;;;4.39;100.00
4346;BME280;2186;49.866;7.986;2022-11-20T03:03:33;99798.28;;;4.53;100.00
4346;BME280;2186;49.866;7.986;2022-11-20T03:05:59;99790.72;;;4.22;100.00
4346;BME280;2186;49.866;7.986;2022-11-20T03:08:26;99796.94;;;4.15;100.00
4346;BME280;2186;49.866;7.986;2022-11-20T03:10:52;99802.91;;;4.31;100.00
4346;BME280;2186;49.866;7.986;2022-11-20T03:13:18;99799.16;;;4.50;100.00
4346;BME280;2186;49.866;7.986;2022-11-20T03:15:45;99796.31;;;4.70;100.00
4346;BME280;2186;49.866;7.986;2022-11-20T03:18:11;99796.69;;;4.39;100.00
4346;BME280;2186;49.866;7.986;2022-11-20T03:20:39;99798.41;;;4.42;100.00
4346;BME280;2186;49.866;7.986;2022-11-20T03:23:06;99801.19;;;4.28;100.00
4346;BME280;2186;49.866;7.986;2022-11-20T03:25:32;99795.97;;;4.25;100.00
4346;BME280;2186;49.866;7.986;2022-11-20T03:27:58;99789.78;;;4.29;100.00
4346;BME280;2186;49.866;7.986;2022-11-20T03:30:25;99791.47;;;4.35;100.00
4346;BME280;2186;49.866;7.986;2022-11-20T03:32:56;99795.03;;;4.29;100.00
4346;BME280;2186;49.866;7.986;2022-11-20T03:35:22;99791.34;;;4.45;100.00
4346;BME280;2186;49.866;7.986;2022-11-20T03:37:49;99786.09;;;4.44;100.00
4346;BME280;2186;49.866;7.986;2022-11-20T03:40:15;99782.69;;;4.34;100.00
4346;BME280;2186;49.866;7.986;2022-11-20T03:42:41;99782.72;;;4.33;100.00
4346;BME280;2186;49.866;7.986;2022-11-20T03:45:15;99778.28;;;4.36;100.00
4346;BME280;2186;49.866;7.986;2022-11-20T03:47:43;99779.34;;;4.22;100.00
4346;BME280;2186;49.866;7.986;2022-11-20T03:50:11;99781.13;;;4.18;100.00
4346;BME280;2186;49.866;7.986;2022-11-20T03:52:39;99789.84;;;4.22;100.00
4346;BME280;2186;49.866;7.986;2022-11-20T03:55:06;99781.94;;;4.23;100.00
4346;BME280;2186;49.866;7.986;2022-11-20T03:57:33;99781.94;;;4.23;100.00
4346;BME280;2186;49.866;7.986;2022-11-20T03:59:59;99787.00;;;4.41;100.00
4346;BME280;2186;49.866;7.986;2022-11-20T04:02:26;99769.66;;;4.25;100.00
4346;BME280;2186;49.866;7.986;2022-11-20T04:04:52;99767.81;;;4.32;100.00
4346;BME280;2186;49.866;7.986;2022-11-20T04:07:19;99772.13;;;4.37;100.00
4346;BME280;2186;49.866;7.986;2022-11-20T04:09:46;99772.94;;;4.44;100.00
4346;BME280;2186;49.866;7.986;2022-11-20T04:12:12;99772.25;;;4.28;100.00
4346;BME280;2186;49.866;7.986;2022-11-20T04:14:39;99762.63;;;4.27;100.00
4346;BME280;2186;49.866;7.986;2022-11-20T04:17:05;99764.38;;;4.28;100.00
4346;BME280;2186;49.866;7.986;2022-11-20T04:19:32;99766.22;;;4.19;100.00
4346;BME280;2186;49.866;7.986;2022-11-20T04:21:58;99769.41;;;4.45;100.00
4346;BME280;2186;49.866;7.986;2022-11-20T04:24:25;99774.75;;;4.40;100.00
4346;BME280;2186;49.866;7.986;2022-11-20T04:26:52;99778.09;;;4.55;100.00
4346;BME280;2186;49.866;7.986;2022-11-20T04:29:18;99778.97;;;4.54;100.00
4346;BME280;2186;49.866;7.986;2022-11-20T04:31:45;99773.00;;;4.39;100.00
4346;BME280;2186;49.866;7.986;2022-11-20T04:34:11;99769.59;;;4.31;100.00
4346;BME280;2186;49.866;7.986;2022-11-20T04:36:39;99774.75;;;4.40;100.00
4346;BME280;2186;49.866;7.986;2022-11-20T04:39:05;99766.84;;;4.40;100.00
4346;BME280;2186;49.866;7.986;2022-11-20T04:41:34;99773.75;;;4.49;100.00
4346;BME280;2186;49.866;7.986;2022-11-20T04:44:03;99763.34;;;4.40;100.00
4346;BME280;2186;49.866;7.986;2022-11-20T04:46:31;99770.22;;;4.50;100.00
4346;BME280;2186;49.866;7.986;2022-11-20T04:48:59;99768.44;;;4.54;100.00
4346;BME280;2186;49.866;7.986;2022-11-20T04:51:26;99771.19;;;4.43;100.00
4346;BME280;2186;49.866;7.986;2022-11-20T04:53:53;99766.63;;;4.57;100.00
4346;BME280;2186;49.866;7.986;2022-11-20T04:56:20;99771.97;;;4.50;100.00
4346;BME280;2186;49.866;7.986;2022-11-20T04:58:46;99772.63;;;4.68;100.00
4346;BME280;2186;49.866;7.986;2022-11-20T05:01:15;99768.19;;;4.72;100.00
4346;BME280;2186;49.866;7.986;2022-11-20T05:03:43;99759.31;;;4.81;100.00
4346;BME280;2186;49.866;7.986;2022-11-20T05:06:12;99749.13;;;4.55;100.00
4346;BME280;2186;49.866;7.986;2022-11-20T05:08:39;99753.69;;;4.40;100.00
4346;BME280;2186;49.866;7.986;2022-11-20T05:11:10;99762.19;;;4.61;100.00
4346;BME280;2186;49.866;7.986;2022-11-20T05:13:38;99779.13;;;5.04;100.00
4346;BME280;2186;49.866;7.986;2022-11-20T05:16:07;99775.94;;;4.84;100.00
4346;BME280;2186;49.866;7.986;2022-11-20T05:18:34;99771.66;;;4.75;100.00
4346;BME280;2186;49.866;7.986;2022-11-20T05:21:01;99740.59;;;5.00;100.00
4346;BME280;2186;49.866;7.986;2022-11-20T05:23:29;99729.81;;;4.56;100.00
4346;BME280;2186;49.866;7.986;2022-11-20T05:25:57;99739.59;;;4.44;100.00
4346;BME280;2186;49.866;7.986;2022-11-20T05:28:25;99750.75;;;4.66;100.00
4346;BME280;2186;49.866;7.986;2022-11-20T05:30:52;99750.06;;;4.49;100.00
4346;BME280;2186;49.866;7.986;2022-11-20T05:33:18;99756.75;;;4.74;100.00
4346;BME280;2186;49.866;7.986;2022-11-20T05:35:45;99757.69;;;4.70;100.00
4346;BME280;2186;49.866;7.986;2022-11-20T05:38:11;99755.03;;;4.72;100.00
4346;BME280;2186;49.866;7.986;2022-11-20T05:40:38;99758.69;;;4.60;100.00
4346;BME280;2186;49.866;7.986;2022-11-20T05:43:04;99746.50;;;4.52;100.00
4346;BME280;2186;49.866;7.986;2022-11-20T05:45:31;99750.06;;;4.49;100.00
4346;BME280;2186;49.866;7.986;2022-11-20T05:47:58;99744.75;;;4.52;100.00
4346;BME280;2186;49.866;7.986;2022-11-20T05:50:27;99743.41;;;4.21;100.00
4346;BME280;2186;49.866;7.986;2022-11-20T05:52:54;99744.28;;;4.21;100.00
4346;BME280;2186;49.866;7.986;2022-11-20T05:55:20;99738.19;;;4.16;100.00
4346;BME280;2186;49.866;7.986;2022-11-20T05:57:47;99732.00;;;4.20;100.00
4346;BME280;2186;49.866;7.986;2022-11-20T06:00:14;99733.94;;;4.06;100.00
4346;BME280;2186;49.866;7.986;2022-11-20T06:02:40;99748.63;;;4.25;100.00
4346;BME280;2186;49.866;7.986;2022-11-20T06:05:07;99744.78;;;4.51;100.00
4346;BME280;2186;49.866;7.986;2022-11-20T06:07:33;99748.31;;;4.48;100.00
4346;BME280;2186;49.866;7.986;2022-11-20T06:10:00;99739.59;;;4.46;100.00
4346;BME280;2186;49.866;7.986;2022-11-20T06:12:26;99739.53;;;4.49;100.00
4346;BME280;2186;49.866;7.986;2022-11-20T06:14:53;99735.31;;;4.39;100.00
4346;BME280;2186;49.866;7.986;2022-11-20T06:17:19;99746.47;;;4.56;100.00
4346;BME280;2186;49.866;7.986;2022-11-20T06:19:45;99742.00;;;4.63;100.00
4346;BME280;2186;49.866;7.986;2022-11-20T06:22:12;99742.97;;;4.56;100.00
4346;BME280;2186;49.866;7.986;2022-11-20T06:24:38;99737.88;;;4.42;100.00
4346;BME280;2186;49.866;7.986;2022-11-20T06:27:04;99743.81;;;4.58;100.00
4346;BME280;2186;49.866;7.986;2022-11-20T06:29:31;99741.25;;;4.52;100.00
4346;BME280;2186;49.866;7.986;2022-11-20T06:31:59;99741.38;;;4.42;100.00
4346;BME280;2186;49.866;7.986;2022-11-20T06:34:26;99736.78;;;4.58;100.00
4346;BME280;2186;49.866;7.986;2022-11-20T06:36:52;99743.34;;;4.91;100.00
4346;BME280;2186;49.866;7.986;2022-11-20T06:39:18;99737.25;;;4.88;100.00
4346;BME280;2186;49.866;7.986;2022-11-20T06:41:45;99735.06;;;4.57;100.00
4346;BME280;2186;49.866;7.986;2022-11-20T06:44:12;99742.72;;;4.74;100.00
4346;BME280;2186;49.866;7.986;2022-11-20T06:46:38;99748.72;;;4.84;100.00
4346;BME280;2186;49.866;7.986;2022-11-20T06:49:05;99754.03;;;4.82;100.00
4346;BME280;2186;49.866;7.986;2022-11-20T06:51:32;99749.66;;;4.80;100.00
4346;BME280;2186;49.866;7.986;2022-11-20T06:53:58;99754.09;;;4.76;100.00
4346;BME280;2186;49.866;7.986;2022-11-20T06:56:25;99748.81;;;4.78;100.00
4346;BME280;2186;49.866;7.986;2022-11-20T06:58:52;99754.25;;;4.64;100.00
4346;BME280;2186;49.866;7.986;2022-11-20T07:01:18;99752.97;;;4.92;100.00
4346;BME280;2186;49.866;7.986;2022-11-20T07:03:45;99765.44;;;4.81;100.00
4346;BME280;2186;49.866;7.986;2022-11-20T07:06:19;99761.84;;;4.87;100.00
4346;BME280;2186;49.866;7.986;2022-11-20T07:08:45;99760.88;;;4.92;100.00
4346;BME280;2186;49.866;7.986;2022-11-20T07:11:13;99759.50;;;5.27;100.00
4346;BME280;2186;49.866;7.986;2022-11-20T07:13:39;99770.28;;;5.10;100.00
4346;BME280;2186;49.866;7.986;2022-11-20T07:16:07;99761.47;;;5.13;100.00
4346;BME280;2186;49.866;7.986;2022-11-20T07:18:34;99763.41;;;5.00;100.00
4346;BME280;2186;49.866;7.986;2022-11-20T07:21:02;99775.66;;;5.02;100.00
4346;BME280;2186;49.866;7.986;2022-11-20T07:23:29;99766.28;;;4.83;100.00
4346;BME280;2186;49.866;7.986;2022-11-20T07:25:55;99768.16;;;4.73;100.00
4346;BME280;2186;49.866;7.986;2022-11-20T07:28:22;99771.22;;;5.08;100.00
4346;BME280;2186;49.866;7.986;2022-11-20T07:30:53;99774.97;;;4.90;100.00
4346;BME280;2186;49.866;7.986;2022-11-20T07:33:19;99775.88;;;4.87;100.00
4346;BME280;2186;49.866;7.986;2022-11-20T07:35:46;99771.69;;;4.74;100.00
4346;BME280;2186;49.866;7.986;2022-11-20T07:38:13;99767.50;;;4.58;100.00
4346;BME280;2186;49.866;7.986;2022-11-20T07:40:39;99777.22;;;4.53;100.00
4346;BME280;2186;49.866;7.986;2022-11-20T07:43:06;99782.81;;;4.93;100.00
4346;BME280;2186;49.866;7.986;2022-11-20T07:45:32;99776.88;;;4.79;100.00
4346;BME280;2186;49.866;7.986;2022-11-20T07:47:59;99787.41;;;4.77;100.00
4346;BME280;2186;49.866;7.986;2022-11-20T07:50:25;99783.19;;;4.65;100.00
4346;BME280;2186;49.866;7.986;2022-11-20T07:52:51;99796.13;;;4.84;100.00
4346;BME280;2186;49.866;7.986;2022-11-20T07:55:18;99798.75;;;4.84;100.00
4346;BME280;2186;49.866;7.986;2022-11-20T07:57:45;99801.28;;;4.91;100.00
4346;BME280;2186;49.866;7.986;2022-11-20T08:00:12;99795.13;;;4.92;100.00
4346;BME280;2186;49.866;7.986;2022-11-20T08:02:40;99796.47;;;5.19;100.00
4346;BME280;2186;49.866;7.986;2022-11-20T08:05:08;99800.91;;;5.17;100.00
4346;BME280;2186;49.866;7.986;2022-11-20T08:07:39;99793.75;;;5.27;100.00
4346;BME280;2186;49.866;7.986;2022-11-20T08:10:06;99786.84;;;5.18;100.00
4346;BME280;2186;49.866;7.986;2022-11-20T08:12:33;99794.88;;;5.11;100.00
4346;BME280;2186;49.866;7.986;2022-11-20T08:15:18;99795.78;;;5.10;100.00
4346;BME280;2186;49.866;7.986;2022-11-20T08:17:45;99796.72;;;5.02;100.00
4346;BME280;2186;49.866;7.986;2022-11-20T08:20:32;99800.28;;;5.00;100.00
4346;BME280;2186;49.866;7.986;2022-11-20T08:23:03;99802.81;;;5.08;100.00
4346;BME280;2186;49.866;7.986;2022-11-20T08:25:32;99805.31;;;5.17;100.00
4346;BME280;2186;49.866;7.986;2022-11-20T08:28:01;99805.31;;;5.17;100.00
4346;BME280;2186;49.866;7.986;2022-11-20T08:30:43;99810.66;;;5.12;100.00
4346;BME280;2186;49.866;7.986;2022-11-20T08:33:10;99804.19;;;5.34;100.00
4346;BME280;2186;49.866;7.986;2022-11-20T08:35:37;99812.38;;;5.13;100.00
4346;BME280;2186;49.866;7.986;2022-11-20T08:38:05;99808.94;;;5.10;100.00
4346;BME280;2186;49.866;7.986;2022-11-20T08:40:32;99810.72;;;5.08;100.00
4346;BME280;2186;49.866;7.986;2022-11-20T08:42:59;99818.63;;;5.08;100.00
4346;BME280;2186;49.866;7.986;2022-11-20T08:45:25;99815.16;;;5.04;100.00
4346;BME280;2186;49.866;7.986;2022-11-20T08:48:00;99819.53;;;5.05;100.00
4346;BME280;2186;49.866;7.986;2022-11-20T08:50:27;99818.59;;;5.09;100.00
4346;BME280;2186;49.866;7.986;2022-11-20T08:52:53;99824.56;;;5.20;100.00
4346;BME280;2186;49.866;7.986;2022-11-20T08:55:20;99822.88;;;5.16;100.00
4346;BME280;2186;49.866;7.986;2022-11-20T08:57:46;99827.31;;;5.14;100.00
4346;BME280;2186;49.866;7.986;2022-11-20T09:00:16;99826.34;;;5.18;100.00
4346;BME280;2186;49.866;7.986;2022-11-20T09:02:43;99827.06;;;5.29;100.00
4346;BME280;2186;49.866;7.986;2022-11-20T09:05:09;99829.44;;;5.46;100.00
4346;BME280;2186;49.866;7.986;2022-11-20T09:07:35;99832.06;;;5.48;100.00
4346;BME280;2186;49.866;7.986;2022-11-20T09:10:02;99828.91;;;5.26;100.00
4346;BME280;2186;49.866;7.986;2022-11-20T09:12:49;99828.59;;;5.44;100.00
4346;BME280;2186;49.866;7.986;2022-11-20T09:15:18;99823.53;;;5.32;100.00
4346;BME280;2186;49.866;7.986;2022-11-20T09:17:53;99830.69;;;5.24;100.00
4346;BME280;2186;49.866;7.986;2022-11-20T09:20:21;99833.00;;;5.44;100.00
4346;BME280;2186;49.866;7.986;2022-11-20T09:22:48;99822.81;;;5.22;100.00
4346;BME280;2186;49.866;7.986;2022-11-20T09:25:14;99826.25;;;5.26;100.00
4346;BME280;2186;49.866;7.986;2022-11-20T09:27:41;99835.97;;;5.22;100.00
4346;BME280;2186;49.866;7.986;2022-11-20T09:30:10;99829.84;;;5.20;100.00
4346;BME280;2186;49.866;7.986;2022-11-20T09:32:38;99828.09;;;5.21;100.00
4346;BME280;2186;49.866;7.986;2022-11-20T09:35:05;99824.53;;;5.25;100.00
4346;BME280;2186;49.866;7.986;2022-11-20T09:37:32;99820.03;;;5.31;100.00
4346;BME280;2186;49.866;7.986;2022-11-20T09:39:58;99821.53;;;5.46;100.00
4346;BME280;2186;49.866;7.986;2022-11-20T09:42:32;99821.41;;;5.55;100.00
4346;BME280;2186;49.866;7.986;2022-11-20T09:45:12;99827.59;;;5.54;100.00
4346;BME280;2186;49.866;7.986;2022-11-20T09:48:13;99823.03;;;5.65;100.00
4346;BME280;2186;49.866;7.986;2022-11-20T09:53:52;99827.78;;;5.98;100.00
4346;BME280;2186;49.866;7.986;2022-11-20T09:56:21;99824.56;;;5.79;100.00
4346;BME280;2186;49.866;7.986;2022-11-20T09:58:52;99830.13;;;5.59;100.00
4346;BME280;2186;49.866;7.986;2022-11-20T10:01:27;99820.44;;;5.62;100.00
4346;BME280;2186;49.866;7.986;2022-11-20T10:04:08;99825.88;;;5.52;100.00
4346;BME280;2186;49.866;7.986;2022-11-20T10:06:45;99814.28;;;5.60;100.00
4346;BME280;2186;49.866;7.986;2022-11-20T10:09:51;99820.44;;;5.61;100.00
4346;BME280;2186;49.866;7.986;2022-11-20T10:18:11;99815.44;;;5.44;100.00
4346;BME280;2186;49.866;7.986;2022-11-20T10:21:03;99809.16;;;5.53;100.00
4346;BME280;2186;49.866;7.986;2022-11-20T10:23:47;99796.00;;;5.51;100.00
4346;BME280;2186;49.866;7.986;2022-11-20T10:26:28;99793.63;;;5.36;100.00
4346;BME280;2186;49.866;7.986;2022-11-20T10:29:11;99791.88;;;5.33;100.00
4346;BME280;2186;49.866;7.986;2022-11-20T10:31:54;99797.69;;;5.55;100.00
4346;BME280;2186;49.866;7.986;2022-11-20T10:34:26;99787.81;;;5.68;100.00
4346;BME280;2186;49.866;7.986;2022-11-20T10:36:59;99788.53;;;5.78;100.00
4346;BME280;2186;49.866;7.986;2022-11-20T10:39:42;99792.78;;;5.85;100.00
4346;BME280;2186;49.866;7.986;2022-11-20T10:42:26;99792.88;;;5.80;100.00
4346;BME280;2186;49.866;7.986;2022-11-20T10:45:44;99786.63;;;5.86;100.00
4346;BME280;2186;49.866;7.986;2022-11-20T10:48:10;99781.31;;;5.87;100.00
4346;BME280;2186;49.866;7.986;2022-11-20T10:50:42;99785.78;;;5.84;100.00
4346;BME280;2186;49.866;7.986;2022-11-20T10:53:40;99775.38;;;5.75;100.00
4346;BME280;2186;49.866;7.986;2022-11-20T10:56:21;99773.59;;;5.78;100.00
4346;BME280;2186;49.866;7.986;2022-11-20T10:59:02;99771.75;;;5.82;100.00
4346;BME280;2186;49.866;7.986;2022-11-20T11:01:29;99774.28;;;5.89;100.00
4346;BME280;2186;49.866;7.986;2022-11-20T11:03:56;99759.50;;;5.79;100.00
4346;BME280;2186;49.866;7.986;2022-11-20T11:06:34;99764.84;;;5.76;100.00
4346;BME280;2186;49.866;7.986;2022-11-20T11:09:10;99752.66;;;5.68;100.00
4346;BME280;2186;49.866;7.986;2022-11-20T11:11:38;99752.50;;;5.78;100.00
4346;BME280;2186;49.866;7.986;2022-11-20T11:14:13;99750.59;;;5.85;100.00
4346;BME280;2186;49.866;7.986;2022-11-20T11:16:51;99742.44;;;6.00;100.00
4346;BME280;2186;49.866;7.986;2022-11-20T11:19:18;99746.59;;;6.12;100.00
4346;BME280;2186;49.866;7.986;2022-11-20T11:21:49;99745.97;;;5.99;100.00
4346;BME280;2186;49.866;7.986;2022-11-20T11:27:13;99745.25;;;5.91;100.00
4346;BME280;2186;49.866;7.986;2022-11-20T11:29:43;99735.44;;;5.98;100.00
4346;BME280;2186;49.866;7.986;2022-11-20T11:32:13;99744.97;;;6.06;100.00
4346;BME280;2186;49.866;7.986;2022-11-20T11:34:40;99728.88;;;6.20;100.00
4346;BME280;2186;49.866;7.986;2022-11-20T11:37:15;99721.88;;;6.17;100.00
4346;BME280;2186;49.866;7.986;2022-11-20T11:39:44;99720.00;;;6.22;100.00
4346;BME280;2186;49.866;7.986;2022-11-20T11:42:20;99725.50;;;6.12;100.00
4346;BME280;2186;49.866;7.986;2022-11-20T11:44:47;99710.09;;;5.90;100.00
4346;BME280;2186;49.866;7.986;2022-11-20T11:53:12;99708.09;;;6.02;100.00
4346;BME280;2186;49.866;7.986;2022-11-20T11:55:43;99701.66;;;6.16;100.00
4346;BME280;2186;49.866;7.986;2022-11-20T11:58:40;99710.06;;;5.89;100.00
4346;BME280;2186;49.866;7.986;2022-11-20T12:04:04;99698.63;;;6.36;100.00
4346;BME280;2186;49.866;7.986;2022-11-20T12:06:34;99695.50;;;6.58;100.00
4346;BME280;2186;49.866;7.986;2022-11-20T12:09:05;99688.47;;;6.58;100.00
4346;BME280;2186;49.866;7.986;2022-11-20T12:11:43;99689.34;;;6.57;100.00
4346;BME280;2186;49.866;7.986;2022-11-20T12:14:17;99687.66;;;6.54;100.00
4346;BME280;2186;49.866;7.986;2022-11-20T12:16:51;99682.41;;;6.53;100.00
4346;BME280;2186;49.866;7.986;2022-11-20T12:19:19;99677.84;;;6.61;100.00
4346;BME280;2186;49.866;7.986;2022-11-20T12:22:20;99677.41;;;6.79;100.00
4346;BME280;2186;49.866;7.986;2022-11-20T12:25:11;99671.34;;;7.11;100.00
4346;BME280;2186;49.866;7.986;2022-11-20T12:30:17;99671.34;;;7.13;100.00
4346;BME280;2186;49.866;7.986;2022-11-20T12:33:03;99678.53;;;7.06;100.00
4346;BME280;2186;49.866;7.986;2022-11-20T12:38:31;99666.16;;;7.08;100.00
4346;BME280;2186;49.866;7.986;2022-11-20T12:43:31;99659.59;;;7.23;100.00
4346;BME280;2186;49.866;7.986;2022-11-20T12:52:10;99659.47;;;7.29;100.00
4346;BME280;2186;49.866;7.986;2022-11-20T12:54:57;99647.59;;;7.46;100.00
4346;BME280;2186;49.866;7.986;2022-11-20T12:57:41;99656.16;;;7.55;100.00
4346;BME280;2186;49.866;7.986;2022-11-20T13:00:18;99651.75;;;7.20;100.00
4346;BME280;2186;49.866;7.986;2022-11-20T13:03:16;99649.16;;;7.19;100.00
4346;BME280;2186;49.866;7.986;2022-11-20T13:08:35;99641.38;;;7.14;100.00
4346;BME280;2186;49.866;7.986;2022-11-20T13:19:31;99624.41;;;7.55;100.00
4346;BME280;2186;49.866;7.986;2022-11-20T13:21:58;99628.38;;;7.71;100.00
4346;BME280;2186;49.866;7.986;2022-11-20T13:24:27;99629.25;;;7.72;100.00
4346;BME280;2186;49.866;7.986;2022-11-20T13:27:16;99617.91;;;7.67;100.00
4346;BME280;2186;49.866;7.986;2022-11-20T13:29:46;99614.09;;;7.77;100.00
4346;BME280;2186;49.866;7.986;2022-11-20T13:32:15;99614.47;;;7.96;100.00
4346;BME280;2186;49.866;7.986;2022-11-20T13:34:56;99600.44;;;7.92;100.00
4346;BME280;2186;49.866;7.986;2022-11-20T13:37:32;99605.09;;;8.14;100.00
4346;BME280;2186;49.866;7.986;2022-11-20T13:42:44;99592.03;;;8.09;100.00
4346;BME280;2186;49.866;7.986;2022-11-20T13:45:22;99583.38;;;8.02;100.00
4346;BME280;2186;49.866;7.986;2022-11-20T13:47:51;99584.66;;;7.89;100.00
4346;BME280;2186;49.866;7.986;2022-11-20T13:50:18;99571.94;;;8.02;100.00
4346;BME280;2186;49.866;7.986;2022-11-20T13:55:54;99569.47;;;7.96;100.00
4346;BME280;2186;49.866;7.986;2022-11-20T14:01:23;99571.94;;;8.02;100.00
4346;BME280;2186;49.866;7.986;2022-11-20T14:03:51;99569.50;;;8.24;100.00
4346;BME280;2186;49.866;7.986;2022-11-20T14:06:41;99565.84;;;8.28;100.00
4346;BME280;2186;49.866;7.986;2022-11-20T14:09:28;99566.56;;;8.33;100.00
4346;BME280;2186;49.866;7.986;2022-11-20T14:11:56;99563.88;;;8.36;100.00
4346;BME280;2186;49.866;7.986;2022-11-20T14:14:28;99568.63;;;8.53;100.00
4346;BME280;2186;49.866;7.986;2022-11-20T14:17:20;99563.38;;;8.51;100.00
4346;BME280;2186;49.866;7.986;2022-11-20T14:19:50;99550.97;;;8.53;100.00
4346;BME280;2186;49.866;7.986;2022-11-20T14:22:22;99550.31;;;8.45;100.00
4346;BME280;2186;49.866;7.986;2022-11-20T14:25:22;99551.28;;;8.43;100.00
4346;BME280;2186;49.866;7.986;2022-11-20T14:27:53;99560.75;;;8.51;100.00
4346;BME280;2186;49.866;7.986;2022-11-20T14:30:24;99546.53;;;8.54;100.00
4346;BME280;2186;49.866;7.986;2022-11-20T14:32:53;99542.59;;;8.39;100.00
4346;BME280;2186;49.866;7.986;2022-11-20T14:35:30;99539.34;;;8.57;100.00
4346;BME280;2186;49.866;7.986;2022-11-20T14:37:57;99541.06;;;8.30;100.00